sensor_id;sensor_type;location;lat;lon;timestamp;temperature;humidity
13245;DHT22;6689;53.400;12.486;2022-11-15T00:02:02;6.50;1.00
13245;DHT22;6689;53.400;12.486;2022-11-15T00:04:30;6.60;1.00
13245;DHT22;6689;53.400;12.486;2022-11-15T00:06:57;6.60;1.00
13245;DHT22;6689;53.400;12.486;2022-11-15T00:09:25;6.50;1.00
13245;DHT22;6689;53.400;12.486;2022-11-15T00:11:52;6.40;1.00
13245;DHT22;6689;53.400;12.486;2022-11-15T00:14:19;6.50;1.00
13245;DHT22;6689;53.400;12.486;2022-11-15T00:16:46;6.50;1.00
13245;DHT22;6689;53.400;12.486;2022-11-15T00:19:13;6.50;1.00
13245;DHT22;6689;53.400;12.486;2022-11-15T00:21:40;6.50;1.00
13245;DHT22;6689;53.400;12.486;2022-11-15T00:24:07;6.50;1.00
13245;DHT22;6689;53.400;12.486;2022-11-15T00:26:35;6.40;1.00
13245;DHT22;6689;53.400;12.486;2022-11-15T00:29:02;6.50;1.00
13245;DHT22;6689;53.400;12.486;2022-11-15T00:31:29;6.40;1.00
13245;DHT22;6689;53.400;12.486;2022-11-15T00:33:56;6.40;1.00
13245;DHT22;6689;53.400;12.486;2022-11-15T00:36:22;6.40;1.00
13245;DHT22;6689;53.400;12.486;2022-11-15T00:38:49;6.30;1.00
13245;DHT22;6689;53.400;12.486;2022-11-15T00:41:16;6.30;1.00
13245;DHT22;6689;53.400;12.486;2022-11-15T00:43:45;6.30;1.00
13245;DHT22;6689;53.400;12.486;2022-11-15T00:46:12;6.30;1.00
13245;DHT22;6689;53.400;12.486;2022-11-15T00:48:39;6.40;1.00
13245;DHT22;6689;53.400;12.486;2022-11-15T00:51:05;6.40;1.00
13245;DHT22;6689;53.400;12.486;2022-11-15T00:53:32;6.40;1.00
13245;DHT22;6689;53.400;12.486;2022-11-15T00:55:59;6.40;1.00
13245;DHT22;6689;53.400;12.486;2022-11-15T00:58:26;6.40;1.00
13245;DHT22;6689;53.400;12.486;2022-11-15T01:00:54;6.30;1.00
13245;DHT22;6689;53.400;12.486;2022-11-15T01:03:21;6.40;1.00
13245;DHT22;6689;53.400;12.486;2022-11-15T01:05:48;6.30;1.00
13245;DHT22;6689;53.400;12.486;2022-11-15T01:08:15;6.30;1.00
13245;DHT22;6689;53.400;12.486;2022-11-15T01:10:42;6.30;1.00
13245;DHT22;6689;53.400;12.486;2022-11-15T01:13:09;6.30;1.00
13245;DHT22;6689;53.400;12.486;2022-11-15T01:15:38;6.30;1.00
13245;DHT22;6689;53.400;12.486;2022-11-15T01:18:07;6.20;1.00
13245;DHT22;6689;53.400;12.486;2022-11-15T01:20:34;6.20;1.00
13245;DHT22;6689;53.400;12.486;2022-11-15T01:23:01;6.20;1.00
13245;DHT22;6689;53.400;12.486;2022-11-15T01:25:28;6.20;1.00
13245;DHT22;6689;53.400;12.486;2022-11-15T01:27:55;6.20;1.00
13245;DHT22;6689;53.400;12.486;2022-11-15T01:30:22;6.20;1.00
13245;DHT22;6689;53.400;12.486;2022-11-15T01:32:48;6.10;1.00
13245;DHT22;6689;53.400;12.486;2022-11-15T01:35:17;6.10;1.00
13245;DHT22;6689;53.400;12.486;2022-11-15T01:37:44;6.10;1.00
13245;DHT22;6689;53.400;12.486;2022-11-15T01:40:11;6.00;1.00
13245;DHT22;6689;53.400;12.486;2022-11-15T01:42:38;6.10;1.00
13245;DHT22;6689;53.400;12.486;2022-11-15T01:45:05;6.10;1.00
13245;DHT22;6689;53.400;12.486;2022-11-15T01:47:33;6.10;1.00
13245;DHT22;6689;53.400;12.486;2022-11-15T01:50:02;6.10;1.00
13245;DHT22;6689;53.400;12.486;2022-11-15T01:52:32;6.10;1.00
13245;DHT22;6689;53.400;12.486;2022-11-15T01:55:01;6.00;1.00
13245;DHT22;6689;53.400;12.486;2022-11-15T01:57:28;6.00;1.00
13245;DHT22;6689;53.400;12.486;2022-11-15T01:59:57;6.00;1.00
13245;DHT22;6689;53.400;12.486;2022-11-15T02:02:25;5.90;1.00
13245;DHT22;6689;53.400;12.486;2022-11-15T02:04:52;5.90;1.00
13245;DHT22;6689;53.400;12.486;2022-11-15T02:07:19;5.90;1.00
13245;DHT22;6689;53.400;12.486;2022-11-15T02:09:48;5.90;1.00
13245;DHT22;6689;53.400;12.486;2022-11-15T02:12:16;5.90;1.00
13245;DHT22;6689;53.400;12.486;2022-11-15T02:14:45;5.90;1.00
13245;DHT22;6689;53.400;12.486;2022-11-15T02:17:26;5.90;1.00
13245;DHT22;6689;53.400;12.486;2022-11-15T02:22:51;5.90;1.00
13245;DHT22;6689;53.400;12.486;2022-11-15T02:25:29;5.90;1.00
13245;DHT22;6689;53.400;12.486;2022-11-15T02:28:07;5.90;1.00
13245;DHT22;6689;53.400;12.486;2022-11-15T02:30:40;5.90;1.00
13245;DHT22;6689;53.400;12.486;2022-11-15T02:33:10;5.90;1.00
13245;DHT22;6689;53.400;12.486;2022-11-15T02:35:40;5.90;1.00
13245;DHT22;6689;53.400;12.486;2022-11-15T02:38:12;5.90;1.00
13245;DHT22;6689;53.400;12.486;2022-11-15T02:40:45;5.90;1.00
13245;DHT22;6689;53.400;12.486;2022-11-15T02:43:15;5.90;1.00
13245;DHT22;6689;53.400;12.486;2022-11-15T02:46:03;5.90;1.00
13245;DHT22;6689;53.400;12.486;2022-11-15T02:48:33;5.90;1.00
13245;DHT22;6689;53.400;12.486;2022-11-15T02:51:00;5.90;1.00
13245;DHT22;6689;53.400;12.486;2022-11-15T02:53:28;5.90;1.00
13245;DHT22;6689;53.400;12.486;2022-11-15T02:55:54;5.90;1.00
13245;DHT22;6689;53.400;12.486;2022-11-15T02:58:38;5.90;1.00
13245;DHT22;6689;53.400;12.486;2022-11-15T03:01:13;5.90;1.00
13245;DHT22;6689;53.400;12.486;2022-11-15T03:03:46;5.90;1.00
13245;DHT22;6689;53.400;12.486;2022-11-15T03:06:20;5.90;1.00
13245;DHT22;6689;53.400;12.486;2022-11-15T03:08:51;5.80;1.00
13245;DHT22;6689;53.400;12.486;2022-11-15T03:11:21;5.90;1.00
13245;DHT22;6689;53.400;12.486;2022-11-15T03:13:50;5.90;1.00
13245;DHT22;6689;53.400;12.486;2022-11-15T03:16:23;5.80;1.00
13245;DHT22;6689;53.400;12.486;2022-11-15T03:18:52;5.80;1.00
13245;DHT22;6689;53.400;12.486;2022-11-15T03:21:20;5.80;1.00
13245;DHT22;6689;53.400;12.486;2022-11-15T03:23:48;5.80;1.00
13245;DHT22;6689;53.400;12.486;2022-11-15T03:26:15;5.80;1.00
13245;DHT22;6689;53.400;12.486;2022-11-15T03:28:44;5.80;1.00
13245;DHT22;6689;53.400;12.486;2022-11-15T03:31:13;5.80;1.00
13245;DHT22;6689;53.400;12.486;2022-11-15T03:34:00;5.80;1.00
13245;DHT22;6689;53.400;12.486;2022-11-15T03:36:30;5.70;1.00
13245;DHT22;6689;53.400;12.486;2022-11-15T03:38:59;5.80;1.00
13245;DHT22;6689;53.400;12.486;2022-11-15T03:41:28;5.70;1.00
13245;DHT22;6689;53.400;12.486;2022-11-15T03:43:57;5.70;1.00
13245;DHT22;6689;53.400;12.486;2022-11-15T03:46:26;5.70;1.00
13245;DHT22;6689;53.400;12.486;2022-11-15T03:48:54;5.70;1.00
13245;DHT22;6689;53.400;12.486;2022-11-15T03:51:24;5.70;1.00
13245;DHT22;6689;53.400;12.486;2022-11-15T03:53:51;5.70;1.00
13245;DHT22;6689;53.400;12.486;2022-11-15T03:56:18;5.70;1.00
13245;DHT22;6689;53.400;12.486;2022-11-15T03:58:45;5.70;1.00
13245;DHT22;6689;53.400;12.486;2022-11-15T04:01:12;5.70;1.00
13245;DHT22;6689;53.400;12.486;2022-11-15T04:03:39;5.70;1.00
13245;DHT22;6689;53.400;12.486;2022-11-15T04:06:06;5.70;1.00
13245;DHT22;6689;53.400;12.486;2022-11-15T04:08:34;5.70;1.00
13245;DHT22;6689;53.400;12.486;2022-11-15T04:11:02;5.60;1.00
13245;DHT22;6689;53.400;12.486;2022-11-15T04:13:28;5.60;1.00
13245;DHT22;6689;53.400;12.486;2022-11-15T04:15:55;5.60;1.00
13245;DHT22;6689;53.400;12.486;2022-11-15T04:18:23;5.60;1.00
13245;DHT22;6689;53.400;12.486;2022-11-15T04:20:50;5.60;1.00
13245;DHT22;6689;53.400;12.486;2022-11-15T04:23:36;5.50;1.00
13245;DHT22;6689;53.400;12.486;2022-11-15T04:26:21;5.50;1.00
13245;DHT22;6689;53.400;12.486;2022-11-15T04:28:48;5.40;1.00
13245;DHT22;6689;53.400;12.486;2022-11-15T04:31:33;5.40;1.00
13245;DHT22;6689;53.400;12.486;2022-11-15T04:34:00;5.30;1.00
13245;DHT22;6689;53.400;12.486;2022-11-15T04:36:27;5.20;99.90
13245;DHT22;6689;53.400;12.486;2022-11-15T04:39:09;5.20;99.90
13245;DHT22;6689;53.400;12.486;2022-11-15T04:41:36;5.10;99.90
13245;DHT22;6689;53.400;12.486;2022-11-15T04:44:03;5.10;99.90
13245;DHT22;6689;53.400;12.486;2022-11-15T04:46:30;5.10;99.90
13245;DHT22;6689;53.400;12.486;2022-11-15T04:48:57;5.10;99.90
13245;DHT22;6689;53.400;12.486;2022-11-15T04:51:23;5.10;99.90
13245;DHT22;6689;53.400;12.486;2022-11-15T04:53:50;5.10;99.90
13245;DHT22;6689;53.400;12.486;2022-11-15T04:56:19;5.10;99.90
13245;DHT22;6689;53.400;12.486;2022-11-15T04:58:48;5.00;99.90
13245;DHT22;6689;53.400;12.486;2022-11-15T05:01:15;5.00;99.90
13245;DHT22;6689;53.400;12.486;2022-11-15T05:03:41;5.00;99.90
13245;DHT22;6689;53.400;12.486;2022-11-15T05:06:26;5.00;99.90
13245;DHT22;6689;53.400;12.486;2022-11-15T05:08:53;5.00;99.90
13245;DHT22;6689;53.400;12.486;2022-11-15T05:11:21;5.00;99.90
13245;DHT22;6689;53.400;12.486;2022-11-15T05:13:48;4.90;99.90
13245;DHT22;6689;53.400;12.486;2022-11-15T05:16:15;5.00;99.90
13245;DHT22;6689;53.400;12.486;2022-11-15T05:18:42;4.90;99.90
13245;DHT22;6689;53.400;12.486;2022-11-15T05:21:10;4.80;99.90
13245;DHT22;6689;53.400;12.486;2022-11-15T05:23:37;4.80;99.90
13245;DHT22;6689;53.400;12.486;2022-11-15T05:26:05;4.80;99.90
13245;DHT22;6689;53.400;12.486;2022-11-15T05:28:34;4.80;99.90
13245;DHT22;6689;53.400;12.486;2022-11-15T05:31:02;4.80;99.90
13245;DHT22;6689;53.400;12.486;2022-11-15T05:33:29;4.80;99.90
13245;DHT22;6689;53.400;12.486;2022-11-15T05:35:57;4.80;99.90
13245;DHT22;6689;53.400;12.486;2022-11-15T05:38:26;5.00;99.90
13245;DHT22;6689;53.400;12.486;2022-11-15T05:40:54;4.70;99.90
13245;DHT22;6689;53.400;12.486;2022-11-15T05:43:21;4.60;99.90
13245;DHT22;6689;53.400;12.486;2022-11-15T05:45:50;4.60;99.90
13245;DHT22;6689;53.400;12.486;2022-11-15T05:48:17;4.60;99.90
13245;DHT22;6689;53.400;12.486;2022-11-15T05:50:44;4.60;99.90
13245;DHT22;6689;53.400;12.486;2022-11-15T05:53:14;4.60;99.90
13245;DHT22;6689;53.400;12.486;2022-11-15T05:55:42;4.60;99.90
13245;DHT22;6689;53.400;12.486;2022-11-15T05:58:09;4.60;99.90
13245;DHT22;6689;53.400;12.486;2022-11-15T06:00:36;4.60;99.90
13245;DHT22;6689;53.400;12.486;2022-11-15T06:03:04;4.50;99.90
13245;DHT22;6689;53.400;12.486;2022-11-15T06:05:31;4.60;99.90
13245;DHT22;6689;53.400;12.486;2022-11-15T06:07:58;4.50;99.90
13245;DHT22;6689;53.400;12.486;2022-11-15T06:10:25;4.60;99.90
13245;DHT22;6689;53.400;12.486;2022-11-15T06:12:56;4.60;99.90
13245;DHT22;6689;53.400;12.486;2022-11-15T06:15:23;4.60;99.90
13245;DHT22;6689;53.400;12.486;2022-11-15T06:17:50;4.50;99.90
13245;DHT22;6689;53.400;12.486;2022-11-15T06:20:19;4.50;99.90
13245;DHT22;6689;53.400;12.486;2022-11-15T06:22:45;4.50;99.90
13245;DHT22;6689;53.400;12.486;2022-11-15T06:25:12;4.50;99.90
13245;DHT22;6689;53.400;12.486;2022-11-15T06:27:39;4.50;99.90
13245;DHT22;6689;53.400;12.486;2022-11-15T06:30:07;4.50;99.90
13245;DHT22;6689;53.400;12.486;2022-11-15T06:32:33;4.50;99.90
13245;DHT22;6689;53.400;12.486;2022-11-15T06:35:00;4.50;99.90
13245;DHT22;6689;53.400;12.486;2022-11-15T06:37:29;4.50;99.90
13245;DHT22;6689;53.400;12.486;2022-11-15T06:39:56;4.50;99.90
13245;DHT22;6689;53.400;12.486;2022-11-15T06:42:23;4.50;99.90
13245;DHT22;6689;53.400;12.486;2022-11-15T06:44:50;4.50;99.90
13245;DHT22;6689;53.400;12.486;2022-11-15T06:47:16;4.50;99.90
13245;DHT22;6689;53.400;12.486;2022-11-15T06:49:43;4.50;99.90
13245;DHT22;6689;53.400;12.486;2022-11-15T06:52:10;4.50;99.90
13245;DHT22;6689;53.400;12.486;2022-11-15T06:54:39;4.50;99.90
13245;DHT22;6689;53.400;12.486;2022-11-15T06:57:06;4.50;99.90
13245;DHT22;6689;53.400;12.486;2022-11-15T06:59:32;4.50;99.90
13245;DHT22;6689;53.400;12.486;2022-11-15T07:01:59;4.50;99.90
13245;DHT22;6689;53.400;12.486;2022-11-15T07:04:26;4.50;99.90
13245;DHT22;6689;53.400;12.486;2022-11-15T07:06:53;4.60;99.90
13245;DHT22;6689;53.400;12.486;2022-11-15T07:09:20;4.60;99.90
13245;DHT22;6689;53.400;12.486;2022-11-15T07:11:48;4.70;99.90
13245;DHT22;6689;53.400;12.486;2022-11-15T07:14:15;4.80;99.90
13245;DHT22;6689;53.400;12.486;2022-11-15T07:16:42;4.80;99.90
13245;DHT22;6689;53.400;12.486;2022-11-15T07:19:09;4.80;99.90
13245;DHT22;6689;53.400;12.486;2022-11-15T07:21:36;4.70;99.90
13245;DHT22;6689;53.400;12.486;2022-11-15T07:24:04;4.80;1.00
13245;DHT22;6689;53.400;12.486;2022-11-15T07:26:30;4.80;1.00
13245;DHT22;6689;53.400;12.486;2022-11-15T07:28:59;4.90;1.00
13245;DHT22;6689;53.400;12.486;2022-11-15T07:31:27;5.00;1.00
13245;DHT22;6689;53.400;12.486;2022-11-15T07:33:54;5.00;1.00
13245;DHT22;6689;53.400;12.486;2022-11-15T07:36:21;5.10;1.00
13245;DHT22;6689;53.400;12.486;2022-11-15T07:38:48;5.20;1.00
13245;DHT22;6689;53.400;12.486;2022-11-15T07:41:15;5.10;1.00
13245;DHT22;6689;53.400;12.486;2022-11-15T07:43:42;5.20;1.00
13245;DHT22;6689;53.400;12.486;2022-11-15T07:46:13;5.30;1.00
13245;DHT22;6689;53.400;12.486;2022-11-15T07:48:40;5.30;1.00
13245;DHT22;6689;53.400;12.486;2022-11-15T07:51:09;5.40;1.00
13245;DHT22;6689;53.400;12.486;2022-11-15T07:53:40;5.40;1.00
13245;DHT22;6689;53.400;12.486;2022-11-15T07:56:07;5.50;1.00
13245;DHT22;6689;53.400;12.486;2022-11-15T07:58:34;5.50;1.00
13245;DHT22;6689;53.400;12.486;2022-11-15T08:01:02;5.50;1.00
13245;DHT22;6689;53.400;12.486;2022-11-15T08:03:30;5.60;1.00
13245;DHT22;6689;53.400;12.486;2022-11-15T08:05:57;5.60;1.00
13245;DHT22;6689;53.400;12.486;2022-11-15T08:08:24;5.70;1.00
13245;DHT22;6689;53.400;12.486;2022-11-15T08:10:51;5.70;1.00
13245;DHT22;6689;53.400;12.486;2022-11-15T08:13:18;5.70;1.00
13245;DHT22;6689;53.400;12.486;2022-11-15T08:15:45;5.80;1.00
13245;DHT22;6689;53.400;12.486;2022-11-15T08:18:13;5.80;1.00
13245;DHT22;6689;53.400;12.486;2022-11-15T08:20:41;5.90;1.00
13245;DHT22;6689;53.400;12.486;2022-11-15T08:23:09;5.90;1.00
13245;DHT22;6689;53.400;12.486;2022-11-15T08:25:37;6.00;1.00
13245;DHT22;6689;53.400;12.486;2022-11-15T08:28:04;6.10;1.00
13245;DHT22;6689;53.400;12.486;2022-11-15T08:30:34;6.10;1.00
13245;DHT22;6689;53.400;12.486;2022-11-15T08:33:01;6.10;1.00
13245;DHT22;6689;53.400;12.486;2022-11-15T08:35:28;6.20;5.40
13245;DHT22;6689;53.400;12.486;2022-11-15T08:37:57;6.20;7.60
13245;DHT22;6689;53.400;12.486;2022-11-15T08:40:24;6.30;8.00
13245;DHT22;6689;53.400;12.486;2022-11-15T08:42:52;6.30;2.80
13245;DHT22;6689;53.400;12.486;2022-11-15T08:45:19;6.40;14.50
13245;DHT22;6689;53.400;12.486;2022-11-15T08:47:45;6.40;1.00
13245;DHT22;6689;53.400;12.486;2022-11-15T08:50:12;6.40;11.90
13245;DHT22;6689;53.400;12.486;2022-11-15T08:52:39;6.50;16.90
13245;DHT22;6689;53.400;12.486;2022-11-15T08:55:08;6.60;16.70
13245;DHT22;6689;53.400;12.486;2022-11-15T08:57:35;6.60;11.90
13245;DHT22;6689;53.400;12.486;2022-11-15T09:00:02;6.60;74.80
13245;DHT22;6689;53.400;12.486;2022-11-15T09:02:29;6.70;40.60
13245;DHT22;6689;53.400;12.486;2022-11-15T09:04:56;6.80;18.20
13245;DHT22;6689;53.400;12.486;2022-11-15T09:07:23;6.80;43.90
13245;DHT22;6689;53.400;12.486;2022-11-15T09:09:59;6.90;53.70
13245;DHT22;6689;53.400;12.486;2022-11-15T09:12:28;6.90;44.10
13245;DHT22;6689;53.400;12.486;2022-11-15T09:14:54;7.00;87.30
13245;DHT22;6689;53.400;12.486;2022-11-15T09:17:21;7.10;77.00
13245;DHT22;6689;53.400;12.486;2022-11-15T09:19:48;7.10;87.40
13245;DHT22;6689;53.400;12.486;2022-11-15T09:22:15;7.20;85.90
13245;DHT22;6689;53.400;12.486;2022-11-15T09:24:43;7.30;99.10
13245;DHT22;6689;53.400;12.486;2022-11-15T09:27:10;7.30;93.70
13245;DHT22;6689;53.400;12.486;2022-11-15T09:29:38;7.30;99.90
13245;DHT22;6689;53.400;12.486;2022-11-15T09:32:05;7.40;95.00
13245;DHT22;6689;53.400;12.486;2022-11-15T09:34:32;7.50;99.90
13245;DHT22;6689;53.400;12.486;2022-11-15T09:36:59;7.50;99.90
13245;DHT22;6689;53.400;12.486;2022-11-15T09:39:26;7.60;99.90
13245;DHT22;6689;53.400;12.486;2022-11-15T09:41:58;7.70;99.90
13245;DHT22;6689;53.400;12.486;2022-11-15T09:47:28;7.80;99.90
13245;DHT22;6689;53.400;12.486;2022-11-15T09:49:58;7.80;99.90
13245;DHT22;6689;53.400;12.486;2022-11-15T09:52:25;7.90;99.90
13245;DHT22;6689;53.400;12.486;2022-11-15T09:54:52;8.00;99.90
13245;DHT22;6689;53.400;12.486;2022-11-15T09:57:22;8.10;99.90
13245;DHT22;6689;53.400;12.486;2022-11-15T09:59:58;8.20;99.90
13245;DHT22;6689;53.400;12.486;2022-11-15T10:02:36;8.30;75.90
13245;DHT22;6689;53.400;12.486;2022-11-15T10:05:12;8.40;80.40
13245;DHT22;6689;53.400;12.486;2022-11-15T10:07:43;8.50;68.40
13245;DHT22;6689;53.400;12.486;2022-11-15T10:10:13;8.60;80.60
13245;DHT22;6689;53.400;12.486;2022-11-15T10:12:44;8.80;47.70
13245;DHT22;6689;53.400;12.486;2022-11-15T10:15:13;8.90;47.10
13245;DHT22;6689;53.400;12.486;2022-11-15T10:17:47;9.00;35.30
13245;DHT22;6689;53.400;12.486;2022-11-15T10:20:22;9.20;7.00
13245;DHT22;6689;53.400;12.486;2022-11-15T10:22:50;9.30;1.00
13245;DHT22;6689;53.400;12.486;2022-11-15T10:25:19;9.50;11.50
13245;DHT22;6689;53.400;12.486;2022-11-15T10:27:48;9.60;1.00
13245;DHT22;6689;53.400;12.486;2022-11-15T10:30:18;9.50;1.00
13245;DHT22;6689;53.400;12.486;2022-11-15T10:32:47;9.50;1.00
13245;DHT22;6689;53.400;12.486;2022-11-15T10:35:19;9.70;1.00
13245;DHT22;6689;53.400;12.486;2022-11-15T10:37:46;9.80;1.00
13245;DHT22;6689;53.400;12.486;2022-11-15T10:40:18;10.00;1.00
13245;DHT22;6689;53.400;12.486;2022-11-15T10:42:46;10.10;1.00
13245;DHT22;6689;53.400;12.486;2022-11-15T10:45:23;10.20;1.00
13245;DHT22;6689;53.400;12.486;2022-11-15T10:47:52;10.30;1.00
13245;DHT22;6689;53.400;12.486;2022-11-15T10:50:27;10.40;1.00
13245;DHT22;6689;53.400;12.486;2022-11-15T10:52:54;10.50;1.00
13245;DHT22;6689;53.400;12.486;2022-11-15T10:55:23;10.60;1.00
13245;DHT22;6689;53.400;12.486;2022-11-15T10:57:52;10.70;1.00
13245;DHT22;6689;53.400;12.486;2022-11-15T11:03:27;10.70;1.00
13245;DHT22;6689;53.400;12.486;2022-11-15T11:06:03;10.80;1.00
13245;DHT22;6689;53.400;12.486;2022-11-15T11:08:30;10.90;1.00
13245;DHT22;6689;53.400;12.486;2022-11-15T11:10:58;11.00;1.00
13245;DHT22;6689;53.400;12.486;2022-11-15T11:13:26;11.10;1.00
13245;DHT22;6689;53.400;12.486;2022-11-15T11:15:55;11.10;1.00
13245;DHT22;6689;53.400;12.486;2022-11-15T11:18:28;11.20;1.00
13245;DHT22;6689;53.400;12.486;2022-11-15T11:20:58;11.30;1.00
13245;DHT22;6689;53.400;12.486;2022-11-15T11:23:33;11.30;1.00
13245;DHT22;6689;53.400;12.486;2022-11-15T11:26:07;11.30;1.00
13245;DHT22;6689;53.400;12.486;2022-11-15T11:28:39;11.40;1.40
13245;DHT22;6689;53.400;12.486;2022-11-15T11:31:13;11.50;1.00
13245;DHT22;6689;53.400;12.486;2022-11-15T11:33:47;11.50;1.00
13245;DHT22;6689;53.400;12.486;2022-11-15T11:36:18;11.50;1.00
13245;DHT22;6689;53.400;12.486;2022-11-15T11:38:55;11.40;1.00
13245;DHT22;6689;53.400;12.486;2022-11-15T11:41:32;11.30;99.90
13245;DHT22;6689;53.400;12.486;2022-11-15T11:44:04;11.40;1.40
13245;DHT22;6689;53.400;12.486;2022-11-15T11:46:37;11.40;1.00
13245;DHT22;6689;53.400;12.486;2022-11-15T11:49:10;11.40;1.00
13245;DHT22;6689;53.400;12.486;2022-11-15T11:51:40;11.40;99.90
13245;DHT22;6689;53.400;12.486;2022-11-15T11:54:10;11.40;99.90
13245;DHT22;6689;53.400;12.486;2022-11-15T11:56:39;11.40;99.90
13245;DHT22;6689;53.400;12.486;2022-11-15T11:59:10;11.30;99.90
13245;DHT22;6689;53.400;12.486;2022-11-15T12:01:42;11.30;1.00
13245;DHT22;6689;53.400;12.486;2022-11-15T12:04:13;11.30;1.00
13245;DHT22;6689;53.400;12.486;2022-11-15T12:06:42;11.40;1.00
13245;DHT22;6689;53.400;12.486;2022-11-15T12:09:13;11.40;1.00
13245;DHT22;6689;53.400;12.486;2022-11-15T12:11:43;11.50;1.00
13245;DHT22;6689;53.400;12.486;2022-11-15T12:14:19;11.60;1.00
13245;DHT22;6689;53.400;12.486;2022-11-15T12:16:47;11.60;1.00
13245;DHT22;6689;53.400;12.486;2022-11-15T12:19:16;11.70;1.00
13245;DHT22;6689;53.400;12.486;2022-11-15T12:21:43;11.80;1.00
13245;DHT22;6689;53.400;12.486;2022-11-15T12:24:13;11.80;1.00
13245;DHT22;6689;53.400;12.486;2022-11-15T12:26:42;11.90;1.00
13245;DHT22;6689;53.400;12.486;2022-11-15T12:29:15;11.90;99.90
13245;DHT22;6689;53.400;12.486;2022-11-15T12:31:44;11.90;99.90
13245;DHT22;6689;53.400;12.486;2022-11-15T12:34:28;12.00;99.90
13245;DHT22;6689;53.400;12.486;2022-11-15T12:36:56;12.00;99.90
13245;DHT22;6689;53.400;12.486;2022-11-15T12:44:56;12.00;99.90
13245;DHT22;6689;53.400;12.486;2022-11-15T12:47:24;12.00;99.90
13245;DHT22;6689;53.400;12.486;2022-11-15T12:49:53;12.00;99.90
13245;DHT22;6689;53.400;12.486;2022-11-15T12:52:20;12.00;99.90
13245;DHT22;6689;53.400;12.486;2022-11-15T12:54:57;12.00;99.90
13245;DHT22;6689;53.400;12.486;2022-11-15T12:57:35;11.90;99.90
13245;DHT22;6689;53.400;12.486;2022-11-15T13:00:05;12.00;99.90
13245;DHT22;6689;53.400;12.486;2022-11-15T13:03:11;12.00;99.90
13245;DHT22;6689;53.400;12.486;2022-11-15T13:08:42;12.00;99.90
13245;DHT22;6689;53.400;12.486;2022-11-15T13:13:58;11.90;99.90
13245;DHT22;6689;53.400;12.486;2022-11-15T13:16:24;11.90;99.90
13245;DHT22;6689;53.400;12.486;2022-11-15T13:18:53;11.90;99.90
13245;DHT22;6689;53.400;12.486;2022-11-15T13:21:21;11.90;99.90
13245;DHT22;6689;53.400;12.486;2022-11-15T13:24:25;11.80;99.90
13245;DHT22;6689;53.400;12.486;2022-11-15T13:26:52;11.80;99.90
13245;DHT22;6689;53.400;12.486;2022-11-15T13:29:19;11.80;99.90
13245;DHT22;6689;53.400;12.486;2022-11-15T13:31:47;11.70;99.90
13245;DHT22;6689;53.400;12.486;2022-11-15T13:34:15;11.70;99.90
13245;DHT22;6689;53.400;12.486;2022-11-15T13:36:43;11.60;99.90
13245;DHT22;6689;53.400;12.486;2022-11-15T13:39:12;11.70;99.90
13245;DHT22;6689;53.400;12.486;2022-11-15T13:41:46;11.80;99.90
13245;DHT22;6689;53.400;12.486;2022-11-15T13:44:19;11.70;99.90
13245;DHT22;6689;53.400;12.486;2022-11-15T13:46:46;11.70;99.90
13245;DHT22;6689;53.400;12.486;2022-11-15T13:49:13;11.70;99.90
13245;DHT22;6689;53.400;12.486;2022-11-15T13:51:42;11.60;99.90
13245;DHT22;6689;53.400;12.486;2022-11-15T13:54:13;11.50;99.90
13245;DHT22;6689;53.400;12.486;2022-11-15T13:56:43;11.60;99.90
13245;DHT22;6689;53.400;12.486;2022-11-15T13:59:15;11.50;99.90
13245;DHT22;6689;53.400;12.486;2022-11-15T14:01:44;11.50;99.90
13245;DHT22;6689;53.400;12.486;2022-11-15T14:04:11;11.50;99.90
13245;DHT22;6689;53.400;12.486;2022-11-15T14:06:43;11.50;99.90
13245;DHT22;6689;53.400;12.486;2022-11-15T14:09:24;11.50;99.90
13245;DHT22;6689;53.400;12.486;2022-11-15T14:11:56;11.50;99.90
13245;DHT22;6689;53.400;12.486;2022-11-15T14:14:25;11.40;99.90
13245;DHT22;6689;53.400;12.486;2022-11-15T14:16:52;11.40;99.90
13245;DHT22;6689;53.400;12.486;2022-11-15T14:19:34;11.40;99.90
13245;DHT22;6689;53.400;12.486;2022-11-15T14:22:11;11.30;99.90
13245;DHT22;6689;53.400;12.486;2022-11-15T14:24:38;11.30;99.90
13245;DHT22;6689;53.400;12.486;2022-11-15T14:27:19;11.30;99.90
13245;DHT22;6689;53.400;12.486;2022-11-15T14:29:48;11.30;99.90
13245;DHT22;6689;53.400;12.486;2022-11-15T14:32:16;11.20;99.90
13245;DHT22;6689;53.400;12.486;2022-11-15T14:34:44;11.20;99.90
13245;DHT22;6689;53.400;12.486;2022-11-15T14:37:18;11.20;99.90
13245;DHT22;6689;53.400;12.486;2022-11-15T14:39:45;11.10;99.90
13245;DHT22;6689;53.400;12.486;2022-11-15T14:42:12;11.20;99.90
13245;DHT22;6689;53.400;12.486;2022-11-15T14:44:39;11.20;99.90
13245;DHT22;6689;53.400;12.486;2022-11-15T14:47:07;11.10;99.90
13245;DHT22;6689;53.400;12.486;2022-11-15T14:49:34;11.10;99.90
13245;DHT22;6689;53.400;12.486;2022-11-15T14:52:01;11.10;99.90
13245;DHT22;6689;53.400;12.486;2022-11-15T14:54:28;11.10;99.90
13245;DHT22;6689;53.400;12.486;2022-11-15T14:56:56;11.10;99.90
13245;DHT22;6689;53.400;12.486;2022-11-15T14:59:22;11.00;99.90
13245;DHT22;6689;53.400;12.486;2022-11-15T15:01:49;11.00;99.90
13245;DHT22;6689;53.400;12.486;2022-11-15T15:04:18;11.00;99.90
13245;DHT22;6689;53.400;12.486;2022-11-15T15:06:44;11.00;99.90
13245;DHT22;6689;53.400;12.486;2022-11-15T15:09:11;11.00;99.90
13245;DHT22;6689;53.400;12.486;2022-11-15T15:11:38;11.00;99.90
13245;DHT22;6689;53.400;12.486;2022-11-15T15:14:05;11.00;99.90
13245;DHT22;6689;53.400;12.486;2022-11-15T15:16:32;11.00;99.90
13245;DHT22;6689;53.400;12.486;2022-11-15T15:18:59;11.00;99.90
13245;DHT22;6689;53.400;12.486;2022-11-15T15:21:28;11.00;99.90
13245;DHT22;6689;53.400;12.486;2022-11-15T15:23:56;11.00;99.90
13245;DHT22;6689;53.400;12.486;2022-11-15T15:26:23;10.90;99.90
13245;DHT22;6689;53.400;12.486;2022-11-15T15:28:50;10.80;1.00
13245;DHT22;6689;53.400;12.486;2022-11-15T15:31:18;10.80;1.00
13245;DHT22;6689;53.400;12.486;2022-11-15T15:33:45;10.80;99.90
13245;DHT22;6689;53.400;12.486;2022-11-15T15:36:16;10.70;99.90
13245;DHT22;6689;53.400;12.486;2022-11-15T15:38:45;10.70;99.90
13245;DHT22;6689;53.400;12.486;2022-11-15T15:41:12;10.60;99.90
13245;DHT22;6689;53.400;12.486;2022-11-15T15:43:41;10.50;99.90
13245;DHT22;6689;53.400;12.486;2022-11-15T15:46:10;10.50;99.90
13245;DHT22;6689;53.400;12.486;2022-11-15T15:48:38;10.40;99.90
13245;DHT22;6689;53.400;12.486;2022-11-15T15:51:05;10.40;99.90
13245;DHT22;6689;53.400;12.486;2022-11-15T15:53:32;10.30;99.90
13245;DHT22;6689;53.400;12.486;2022-11-15T15:56:00;10.30;99.90
13245;DHT22;6689;53.400;12.486;2022-11-15T15:58:27;10.20;99.90
13245;DHT22;6689;53.400;12.486;2022-11-15T16:00:54;10.00;1.00
13245;DHT22;6689;53.400;12.486;2022-11-15T16:03:21;10.00;1.00
13245;DHT22;6689;53.400;12.486;2022-11-15T16:05:49;10.00;1.00
13245;DHT22;6689;53.400;12.486;2022-11-15T16:08:17;9.90;1.00
13245;DHT22;6689;53.400;12.486;2022-11-15T16:10:44;9.80;1.00
13245;DHT22;6689;53.400;12.486;2022-11-15T16:13:13;9.80;1.00
13245;DHT22;6689;53.400;12.486;2022-11-15T16:15:40;9.80;1.00
13245;DHT22;6689;53.400;12.486;2022-11-15T16:18:08;9.70;1.00
13245;DHT22;6689;53.400;12.486;2022-11-15T16:20:40;9.80;1.00
13245;DHT22;6689;53.400;12.486;2022-11-15T16:23:08;9.80;1.00